Terminal Aerodrome Forecast
Issued by NWS

Home | Current Version | Previous Version | Text Only | Print | Product List | Glossary On
Versions: 1 2 3 4 5 6 7 8 9 10 11 12 13
207
FTUS45 KABQ 102320
TAFSAF
TAF
KSAF 102320Z 1100/1124 25008KT P6SM FEW250
     FM110200 01006KT P6SM SCT250
     FM111000 36016G25KT P6SM SCT250
     FM112000 29008KT P6SM SCT250=

USA.gov is the U.S. government's official web portal to all federal, state and local government web resources and services.